sensor_id;sensor_type;location;lat;lon;timestamp;pressure;altitude;pressure_sealevel;temperature;humidity
43838;BME280;65998;46.256;7.534;2023-05-27T00:02:25;87478.91;;;18.10;57.79
43838;BME280;65998;46.256;7.534;2023-05-27T00:04:51;87487.25;;;18.10;57.63
43838;BME280;65998;46.256;7.534;2023-05-27T00:07:16;87487.94;;;18.11;57.69
43838;BME280;65998;46.256;7.534;2023-05-27T00:09:42;87481.69;;;18.10;57.46
43838;BME280;65998;46.256;7.534;2023-05-27T00:12:08;87481.69;;;18.10;57.69
43838;BME280;65998;46.256;7.534;2023-05-27T00:14:34;87490.03;;;18.10;57.67
43838;BME280;65998;46.256;7.534;2023-05-27T00:17:00;87477.56;;;18.09;57.59
43838;BME280;65998;46.256;7.534;2023-05-27T00:19:26;87478.91;;;18.10;57.69
43838;BME280;65998;46.256;7.534;2023-05-27T00:21:51;87480.34;;;18.09;57.66
43838;BME280;65998;46.256;7.534;2023-05-27T00:24:18;87483.81;;;18.10;57.63
43838;BME280;65998;46.256;7.534;2023-05-27T00:26:44;87475.44;;;18.10;57.63
43838;BME280;65998;46.256;7.534;2023-05-27T00:29:10;87480.34;;;18.09;57.57
43838;BME280;65998;46.256;7.534;2023-05-27T00:31:35;87474.09;;;18.09;57.76
43838;BME280;65998;46.256;7.534;2023-05-27T00:34:01;87480.34;;;18.09;57.70
43838;BME280;65998;46.256;7.534;2023-05-27T00:36:27;87466.44;;;18.09;57.79
43838;BME280;65998;46.256;7.534;2023-05-27T00:38:53;87470.56;;;18.10;57.74
43838;BME280;65998;46.256;7.534;2023-05-27T00:41:18;87466.44;;;18.09;57.75
43838;BME280;65998;46.256;7.534;2023-05-27T00:43:44;87465.06;;;18.08;57.77
43838;BME280;65998;46.256;7.534;2023-05-27T00:46:10;87462.97;;;18.09;57.71
43838;BME280;65998;46.256;7.534;2023-05-27T00:48:36;87465.75;;;18.09;57.75
43838;BME280;65998;46.256;7.534;2023-05-27T00:51:02;87463.66;;;18.09;57.85
43838;BME280;65998;46.256;7.534;2023-05-27T00:53:33;87469.22;;;18.09;57.70
43838;BME280;65998;46.256;7.534;2023-05-27T00:56:02;87462.28;;;18.08;57.71
43838;BME280;65998;46.256;7.534;2023-05-27T00:58:28;87453.94;;;18.08;57.79
43838;BME280;65998;46.256;7.534;2023-05-27T01:00:54;87453.25;;;18.08;57.71
43838;BME280;65998;46.256;7.534;2023-05-27T01:03:21;87448.38;;;18.08;57.73
43838;BME280;65998;46.256;7.534;2023-05-27T01:05:46;87444.94;;;18.08;57.63
43838;BME280;65998;46.256;7.534;2023-05-27T01:08:48;87442.81;;;18.08;57.74
43838;BME280;65998;46.256;7.534;2023-05-27T01:11:19;87445.59;;;18.08;57.74
43838;BME280;65998;46.256;7.534;2023-05-27T01:13:53;87434.47;;;18.08;57.82
43838;BME280;65998;46.256;7.534;2023-05-27T01:16:21;87435.91;;;18.07;57.79
43838;BME280;65998;46.256;7.534;2023-05-27T01:18:49;87435.91;;;18.07;57.79
43838;BME280;65998;46.256;7.534;2023-05-27T01:21:16;87433.81;;;18.08;57.76
43838;BME280;65998;46.256;7.534;2023-05-27T01:23:43;87435.22;;;18.07;57.83
43838;BME280;65998;46.256;7.534;2023-05-27T01:26:09;87432.44;;;18.07;57.75
43838;BME280;65998;46.256;7.534;2023-05-27T01:28:35;87431.75;;;18.06;57.82
43838;BME280;65998;46.256;7.534;2023-05-27T01:31:22;87429.66;;;18.07;57.70
43838;BME280;65998;46.256;7.534;2023-05-27T01:33:59;87433.13;;;18.07;57.77
43838;BME280;65998;46.256;7.534;2023-05-27T01:36:28;87435.91;;;18.07;57.87
43838;BME280;65998;46.256;7.534;2023-05-27T01:38:58;87431.75;;;18.06;57.89
43838;BME280;65998;46.256;7.534;2023-05-27T01:41:24;87436.63;;;18.06;57.83
43838;BME280;65998;46.256;7.534;2023-05-27T01:43:51;87428.28;;;18.06;57.81
43838;BME280;65998;46.256;7.534;2023-05-27T01:46:18;87425.53;;;18.06;57.90
43838;BME280;65998;46.256;7.534;2023-05-27T01:48:44;87426.25;;;18.04;57.76
43838;BME280;65998;46.256;7.534;2023-05-27T01:51:09;87426.25;;;18.04;57.90
43838;BME280;65998;46.256;7.534;2023-05-27T01:53:35;87429.03;;;18.04;58.00
43838;BME280;65998;46.256;7.534;2023-05-27T01:56:01;87429.72;;;18.05;57.88
43838;BME280;65998;46.256;7.534;2023-05-27T01:58:27;87433.19;;;18.05;57.84
43838;BME280;65998;46.256;7.534;2023-05-27T02:00:53;87427.63;;;18.05;58.00
43838;BME280;65998;46.256;7.534;2023-05-27T02:03:18;87426.25;;;18.04;57.88
43838;BME280;65998;46.256;7.534;2023-05-27T02:05:44;87429.72;;;18.05;57.86
43838;BME280;65998;46.256;7.534;2023-05-27T02:08:10;87426.94;;;18.05;57.96
43838;BME280;65998;46.256;7.534;2023-05-27T02:10:36;87424.91;;;18.03;57.86
43838;BME280;65998;46.256;7.534;2023-05-27T02:13:02;87422.78;;;18.04;57.98
43838;BME280;65998;46.256;7.534;2023-05-27T02:15:28;87420.00;;;18.04;58.00
43838;BME280;65998;46.256;7.534;2023-05-27T02:17:54;87420.69;;;18.04;58.00
43838;BME280;65998;46.256;7.534;2023-05-27T02:20:19;87422.78;;;18.04;57.89
43838;BME280;65998;46.256;7.534;2023-05-27T02:22:45;87413.09;;;18.03;57.99
43838;BME280;65998;46.256;7.534;2023-05-27T02:25:11;87418.66;;;18.03;57.95
43838;BME280;65998;46.256;7.534;2023-05-27T02:27:37;87419.34;;;18.03;57.92
43838;BME280;65998;46.256;7.534;2023-05-27T02:30:03;87416.56;;;18.03;57.83
43838;BME280;65998;46.256;7.534;2023-05-27T02:32:29;87417.28;;;18.02;57.79
43838;BME280;65998;46.256;7.534;2023-05-27T02:34:55;87413.09;;;18.03;57.83
43838;BME280;65998;46.256;7.534;2023-05-27T02:37:21;87411.72;;;18.02;57.96
43838;BME280;65998;46.256;7.534;2023-05-27T02:39:46;87422.84;;;18.02;57.81
43838;BME280;65998;46.256;7.534;2023-05-27T02:42:12;87417.28;;;18.02;57.98
43838;BME280;65998;46.256;7.534;2023-05-27T02:44:38;87417.28;;;18.02;57.93
43838;BME280;65998;46.256;7.534;2023-05-27T02:47:04;87408.28;;;18.01;57.89
43838;BME280;65998;46.256;7.534;2023-05-27T02:49:30;87410.38;;;18.01;57.89
43838;BME280;65998;46.256;7.534;2023-05-27T02:51:55;87406.16;;;18.02;58.06
43838;BME280;65998;46.256;7.534;2023-05-27T02:54:21;87402.72;;;18.01;58.01
43838;BME280;65998;46.256;7.534;2023-05-27T02:56:47;87404.81;;;18.01;57.96
43838;BME280;65998;46.256;7.534;2023-05-27T02:59:13;87408.97;;;18.02;58.07
43838;BME280;65998;46.256;7.534;2023-05-27T03:01:39;87401.34;;;18.00;58.02
43838;BME280;65998;46.256;7.534;2023-05-27T03:04:04;87404.13;;;18.00;58.04
43838;BME280;65998;46.256;7.534;2023-05-27T03:06:30;87400.66;;;18.00;57.95
43838;BME280;65998;46.256;7.534;2023-05-27T03:08:56;87398.56;;;18.00;57.85
43838;BME280;65998;46.256;7.534;2023-05-27T03:11:22;87397.88;;;18.00;57.94
43838;BME280;65998;46.256;7.534;2023-05-27T03:13:47;87394.44;;;17.99;57.93
43838;BME280;65998;46.256;7.534;2023-05-27T03:16:13;87391.66;;;17.99;57.97
43838;BME280;65998;46.256;7.534;2023-05-27T03:18:39;87396.53;;;17.99;57.91
43838;BME280;65998;46.256;7.534;2023-05-27T03:21:05;87397.88;;;18.00;58.07
43838;BME280;65998;46.256;7.534;2023-05-27T03:23:30;87393.75;;;17.99;58.07
43838;BME280;65998;46.256;7.534;2023-05-27T03:25:56;87391.72;;;17.97;57.98
43838;BME280;65998;46.256;7.534;2023-05-27T03:28:22;87387.50;;;17.98;58.02
43838;BME280;65998;46.256;7.534;2023-05-27T03:30:48;87398.63;;;17.98;58.00
43838;BME280;65998;46.256;7.534;2023-05-27T03:33:14;87401.41;;;17.98;58.02
43838;BME280;65998;46.256;7.534;2023-05-27T03:35:40;87400.78;;;17.96;57.98
43838;BME280;65998;46.256;7.534;2023-05-27T03:38:05;87395.91;;;17.96;58.03
43838;BME280;65998;46.256;7.534;2023-05-27T03:40:31;87397.94;;;17.98;58.09
43838;BME280;65998;46.256;7.534;2023-05-27T03:42:57;87396.59;;;17.97;58.05
43838;BME280;65998;46.256;7.534;2023-05-27T03:45:23;87392.38;;;17.98;58.13
43838;BME280;65998;46.256;7.534;2023-05-27T03:47:49;87395.91;;;17.96;58.03
43838;BME280;65998;46.256;7.534;2023-05-27T03:50:15;87394.50;;;17.97;58.11
43838;BME280;65998;46.256;7.534;2023-05-27T03:52:40;87393.81;;;17.97;57.90
43838;BME280;65998;46.256;7.534;2023-05-27T03:55:07;87391.09;;;17.95;57.94
43838;BME280;65998;46.256;7.534;2023-05-27T03:57:32;87389.00;;;17.95;58.01
43838;BME280;65998;46.256;7.534;2023-05-27T03:59:58;87389.00;;;17.95;58.05
43838;BME280;65998;46.256;7.534;2023-05-27T04:02:24;87393.19;;;17.94;58.06
43838;BME280;65998;46.256;7.534;2023-05-27T04:04:50;87390.41;;;17.94;58.12
43838;BME280;65998;46.256;7.534;2023-05-27T04:07:16;87388.31;;;17.95;58.01
43838;BME280;65998;46.256;7.534;2023-05-27T04:09:41;87395.97;;;17.94;58.13
43838;BME280;65998;46.256;7.534;2023-05-27T04:12:07;87389.72;;;17.94;58.22
43838;BME280;65998;46.256;7.534;2023-05-27T04:14:33;87393.19;;;17.94;58.36
43838;BME280;65998;46.256;7.534;2023-05-27T04:16:59;87391.84;;;17.93;58.43
43838;BME280;65998;46.256;7.534;2023-05-27T04:19:25;87392.50;;;17.94;58.34
43838;BME280;65998;46.256;7.534;2023-05-27T04:21:51;87384.91;;;17.92;58.23
43838;BME280;65998;46.256;7.534;2023-05-27T04:24:17;87384.22;;;17.92;58.42
43838;BME280;65998;46.256;7.534;2023-05-27T04:26:42;87380.78;;;17.91;58.30
43838;BME280;65998;46.256;7.534;2023-05-27T04:29:08;87383.56;;;17.91;58.52
43838;BME280;65998;46.256;7.534;2023-05-27T04:31:34;87388.44;;;17.91;58.51
43838;BME280;65998;46.256;7.534;2023-05-27T04:34:00;87391.91;;;17.91;58.56
43838;BME280;65998;46.256;7.534;2023-05-27T04:36:25;87391.91;;;17.91;58.71
43838;BME280;65998;46.256;7.534;2023-05-27T04:38:52;87396.78;;;17.91;58.73
43838;BME280;65998;46.256;7.534;2023-05-27T04:41:17;87389.19;;;17.89;58.84
43838;BME280;65998;46.256;7.534;2023-05-27T04:43:43;87395.41;;;17.90;58.87
43838;BME280;65998;46.256;7.534;2023-05-27T04:46:09;87391.28;;;17.89;58.76
43838;BME280;65998;46.256;7.534;2023-05-27T04:48:35;87400.97;;;17.90;58.87
43838;BME280;65998;46.256;7.534;2023-05-27T04:51:00;87391.97;;;17.89;58.84
43838;BME280;65998;46.256;7.534;2023-05-27T04:53:26;87400.97;;;17.90;58.80
43838;BME280;65998;46.256;7.534;2023-05-27T04:55:52;87400.28;;;17.89;58.92
43838;BME280;65998;46.256;7.534;2023-05-27T04:58:18;87405.19;;;17.89;58.80
43838;BME280;65998;46.256;7.534;2023-05-27T05:00:44;87402.41;;;17.89;59.02
43838;BME280;65998;46.256;7.534;2023-05-27T05:03:09;87393.38;;;17.88;58.91
43838;BME280;65998;46.256;7.534;2023-05-27T05:05:35;87392.00;;;17.87;58.91
43838;BME280;65998;46.256;7.534;2023-05-27T05:08:01;87392.69;;;17.88;58.91
43838;BME280;65998;46.256;7.534;2023-05-27T05:10:29;87390.59;;;17.88;58.84
43838;BME280;65998;46.256;7.534;2023-05-27T05:12:55;87389.22;;;17.87;58.93
43838;BME280;65998;46.256;7.534;2023-05-27T05:15:20;87399.69;;;17.86;58.84
43838;BME280;65998;46.256;7.534;2023-05-27T05:17:46;87400.34;;;17.87;58.94
43838;BME280;65998;46.256;7.534;2023-05-27T05:20:12;87399.69;;;17.86;58.96
43838;BME280;65998;46.256;7.534;2023-05-27T05:22:38;87401.78;;;17.86;59.07
43838;BME280;65998;46.256;7.534;2023-05-27T05:25:04;87400.34;;;17.87;58.82
43838;BME280;65998;46.256;7.534;2023-05-27T05:27:30;87403.13;;;17.87;58.91
43838;BME280;65998;46.256;7.534;2023-05-27T05:29:56;87401.78;;;17.86;58.94
43838;BME280;65998;46.256;7.534;2023-05-27T05:32:21;87401.78;;;17.86;58.96
43838;BME280;65998;46.256;7.534;2023-05-27T05:34:47;87400.34;;;17.87;58.89
43838;BME280;65998;46.256;7.534;2023-05-27T05:37:13;87402.47;;;17.86;59.01
43838;BME280;65998;46.256;7.534;2023-05-27T05:39:40;87401.03;;;17.88;58.78
43838;BME280;65998;46.256;7.534;2023-05-27T05:42:06;87396.22;;;17.86;58.97
43838;BME280;65998;46.256;7.534;2023-05-27T05:44:32;87399.69;;;17.86;58.89
43838;BME280;65998;46.256;7.534;2023-05-27T05:46:58;87397.56;;;17.87;58.94
43838;BME280;65998;46.256;7.534;2023-05-27T05:49:24;87392.00;;;17.87;59.07
43838;BME280;65998;46.256;7.534;2023-05-27T05:51:50;87392.00;;;17.87;58.90
43838;BME280;65998;46.256;7.534;2023-05-27T05:54:15;87391.28;;;17.89;58.94
43838;BME280;65998;46.256;7.534;2023-05-27T05:56:41;87390.59;;;17.88;58.78
43838;BME280;65998;46.256;7.534;2023-05-27T05:59:07;87393.38;;;17.88;58.77
43838;BME280;65998;46.256;7.534;2023-05-27T06:01:33;87382.25;;;17.88;58.74
43838;BME280;65998;46.256;7.534;2023-05-27T06:03:59;87386.41;;;17.89;58.65
43838;BME280;65998;46.256;7.534;2023-05-27T06:06:25;87380.09;;;17.91;58.55
43838;BME280;65998;46.256;7.534;2023-05-27T06:08:50;87381.44;;;17.92;58.44
43838;BME280;65998;46.256;7.534;2023-05-27T06:11:16;87378.69;;;17.92;58.23
43838;BME280;65998;46.256;7.534;2023-05-27T06:13:42;87380.72;;;17.93;58.08
43838;BME280;65998;46.256;7.534;2023-05-27T06:16:08;87377.19;;;17.95;57.96
43838;BME280;65998;46.256;7.534;2023-05-27T06:18:34;87377.19;;;17.95;57.69
43838;BME280;65998;46.256;7.534;2023-05-27T06:20:59;87370.22;;;17.96;57.56
43838;BME280;65998;46.256;7.534;2023-05-27T06:23:25;87379.22;;;17.96;57.45
43838;BME280;65998;46.256;7.534;2023-05-27T06:25:51;87377.81;;;17.97;57.21
43838;BME280;65998;46.256;7.534;2023-05-27T06:28:17;87377.81;;;17.97;57.16
43838;BME280;65998;46.256;7.534;2023-05-27T06:30:43;87379.16;;;17.98;57.01
43838;BME280;65998;46.256;7.534;2023-05-27T06:33:08;87375.66;;;18.00;56.97
43838;BME280;65998;46.256;7.534;2023-05-27T06:35:34;87374.22;;;18.01;56.88
43838;BME280;65998;46.256;7.534;2023-05-27T06:38:00;87372.13;;;18.01;56.81
43838;BME280;65998;46.256;7.534;2023-05-27T06:40:28;87372.81;;;18.02;56.78
43838;BME280;65998;46.256;7.534;2023-05-27T06:42:54;87372.06;;;18.03;56.74
43838;BME280;65998;46.256;7.534;2023-05-27T06:45:20;87363.72;;;18.03;56.69
43838;BME280;65998;46.256;7.534;2023-05-27T06:47:46;87373.41;;;18.04;56.77
43838;BME280;65998;46.256;7.534;2023-05-27T06:50:11;87365.75;;;18.05;56.63
43838;BME280;65998;46.256;7.534;2023-05-27T06:52:37;87368.53;;;18.05;56.60
43838;BME280;65998;46.256;7.534;2023-05-27T06:55:03;87367.81;;;18.06;56.53
43838;BME280;65998;46.256;7.534;2023-05-27T06:57:29;87362.91;;;18.07;56.58
43838;BME280;65998;46.256;7.534;2023-05-27T06:59:55;87355.25;;;18.07;56.48
43838;BME280;65998;46.256;7.534;2023-05-27T07:02:22;87355.25;;;18.07;56.39
43838;BME280;65998;46.256;7.534;2023-05-27T07:04:47;87348.94;;;18.09;56.41
43838;BME280;65998;46.256;7.534;2023-05-27T07:07:13;87356.56;;;18.10;56.28
43838;BME280;65998;46.256;7.534;2023-05-27T07:09:39;87353.03;;;18.12;56.28
43838;BME280;65998;46.256;7.534;2023-05-27T07:12:05;87355.13;;;18.11;56.20
43838;BME280;65998;46.256;7.534;2023-05-27T07:14:31;87359.28;;;18.12;56.30
43838;BME280;65998;46.256;7.534;2023-05-27T07:16:57;87360.63;;;18.13;56.19
43838;BME280;65998;46.256;7.534;2023-05-27T07:19:23;87352.97;;;18.14;56.08
43838;BME280;65998;46.256;7.534;2023-05-27T07:21:49;87355.75;;;18.14;56.02
43838;BME280;65998;46.256;7.534;2023-05-27T07:24:14;87350.88;;;18.14;56.13
43838;BME280;65998;46.256;7.534;2023-05-27T07:26:40;87350.13;;;18.16;56.02
43838;BME280;65998;46.256;7.534;2023-05-27T07:29:06;87344.56;;;18.16;55.96
43838;BME280;65998;46.256;7.534;2023-05-27T07:31:32;87343.13;;;18.17;56.03
43838;BME280;65998;46.256;7.534;2023-05-27T07:33:58;87340.34;;;18.17;55.91
43838;BME280;65998;46.256;7.534;2023-05-27T07:36:24;87329.16;;;18.19;55.94
43838;BME280;65998;46.256;7.534;2023-05-27T07:38:49;87330.59;;;18.18;55.91
43838;BME280;65998;46.256;7.534;2023-05-27T07:41:15;87328.47;;;18.18;55.93
43838;BME280;65998;46.256;7.534;2023-05-27T07:43:41;87327.06;;;18.19;55.87
43838;BME280;65998;46.256;7.534;2023-05-27T07:46:07;87327.75;;;18.20;55.80
43838;BME280;65998;46.256;7.534;2023-05-27T07:48:33;87330.53;;;18.20;55.71
43838;BME280;65998;46.256;7.534;2023-05-27T07:50:59;87331.19;;;18.21;55.68
43838;BME280;65998;46.256;7.534;2023-05-27T07:53:24;87327.69;;;18.22;55.72
43838;BME280;65998;46.256;7.534;2023-05-27T07:55:50;87324.91;;;18.22;55.62
43838;BME280;65998;46.256;7.534;2023-05-27T07:58:16;87324.81;;;18.24;55.56
43838;BME280;65998;46.256;7.534;2023-05-27T08:00:42;87327.59;;;18.24;55.62
43838;BME280;65998;46.256;7.534;2023-05-27T08:03:08;87320.63;;;18.25;55.58
43838;BME280;65998;46.256;7.534;2023-05-27T08:05:34;87310.91;;;18.24;55.61
43838;BME280;65998;46.256;7.534;2023-05-27T08:07:59;87315.75;;;18.26;55.50
43838;BME280;65998;46.256;7.534;2023-05-27T08:10:26;87313.63;;;18.26;55.50
43838;BME280;65998;46.256;7.534;2023-05-27T08:12:52;87312.22;;;18.27;55.37
43838;BME280;65998;46.256;7.534;2023-05-27T08:15:18;87312.22;;;18.27;55.46
43838;BME280;65998;46.256;7.534;2023-05-27T08:17:44;87317.78;;;18.27;55.42
43838;BME280;65998;46.256;7.534;2023-05-27T08:20:10;87312.22;;;18.27;55.40
43838;BME280;65998;46.256;7.534;2023-05-27T08:22:36;87312.22;;;18.27;55.39
43838;BME280;65998;46.256;7.534;2023-05-27T08:25:03;87305.97;;;18.27;55.39
43838;BME280;65998;46.256;7.534;2023-05-27T08:27:52;87300.41;;;18.27;55.34
43838;BME280;65998;46.256;7.534;2023-05-27T08:30:18;87301.16;;;18.25;55.36
43838;BME280;65998;46.256;7.534;2023-05-27T08:32:45;87299.13;;;18.24;55.33
43838;BME280;65998;46.256;7.534;2023-05-27T08:35:11;87289.41;;;18.23;55.27
43838;BME280;65998;46.256;7.534;2023-05-27T08:37:38;87285.94;;;18.22;55.33
43838;BME280;65998;46.256;7.534;2023-05-27T08:40:10;87286.63;;;18.23;55.30
43838;BME280;65998;46.256;7.534;2023-05-27T08:42:36;87287.38;;;18.21;55.34
43838;BME280;65998;46.256;7.534;2023-05-27T08:45:03;87282.56;;;18.19;55.43
43838;BME280;65998;46.256;7.534;2023-05-27T08:47:29;87277.00;;;18.19;55.39
43838;BME280;65998;46.256;7.534;2023-05-27T08:49:55;87270.06;;;18.18;55.38
43838;BME280;65998;46.256;7.534;2023-05-27T08:52:21;87268.66;;;18.19;55.36
43838;BME280;65998;46.256;7.534;2023-05-27T08:54:48;87270.75;;;18.19;55.41
43838;BME280;65998;46.256;7.534;2023-05-27T08:57:16;87275.63;;;18.18;55.41
43838;BME280;65998;46.256;7.534;2023-05-27T08:59:43;87276.38;;;18.17;55.49
43838;BME280;65998;46.256;7.534;2023-05-27T09:02:12;87273.59;;;18.17;55.39
43838;BME280;65998;46.256;7.534;2023-05-27T09:04:41;87270.16;;;18.16;55.45
43838;BME280;65998;46.256;7.534;2023-05-27T09:07:07;87268.03;;;18.17;55.41
43838;BME280;65998;46.256;7.534;2023-05-27T09:09:34;87270.16;;;18.16;55.42
43838;BME280;65998;46.256;7.534;2023-05-27T09:12:01;87268.03;;;18.17;55.46
43838;BME280;65998;46.256;7.534;2023-05-27T09:14:28;87266.00;;;18.15;55.42
43838;BME280;65998;46.256;7.534;2023-05-27T09:16:54;87263.22;;;18.15;55.40
43838;BME280;65998;46.256;7.534;2023-05-27T09:19:21;87259.75;;;18.15;55.49
43838;BME280;65998;46.256;7.534;2023-05-27T09:21:51;87257.66;;;18.15;55.45
43838;BME280;65998;46.256;7.534;2023-05-27T09:24:17;87254.94;;;18.13;55.43
43838;BME280;65998;46.256;7.534;2023-05-27T09:26:43;87260.44;;;18.15;55.49
43838;BME280;65998;46.256;7.534;2023-05-27T09:29:09;87247.97;;;18.14;55.47
43838;BME280;65998;46.256;7.534;2023-05-27T09:31:42;87248.63;;;18.15;55.39
43838;BME280;65998;46.256;7.534;2023-05-27T09:34:15;87245.84;;;18.15;55.42
43838;BME280;65998;46.256;7.534;2023-05-27T09:36:43;87241.72;;;18.14;55.43
43838;BME280;65998;46.256;7.534;2023-05-27T09:39:09;87242.41;;;18.14;55.44
43838;BME280;65998;46.256;7.534;2023-05-27T09:41:35;87239.63;;;18.14;55.41
43838;BME280;65998;46.256;7.534;2023-05-27T09:44:01;87240.28;;;18.15;55.48
43838;BME280;65998;46.256;7.534;2023-05-27T09:46:26;87236.16;;;18.14;55.48
43838;BME280;65998;46.256;7.534;2023-05-27T09:48:53;87240.28;;;18.15;55.51
43838;BME280;65998;46.256;7.534;2023-05-27T09:51:19;87234.72;;;18.15;55.47
43838;BME280;65998;46.256;7.534;2023-05-27T09:53:47;87239.63;;;18.14;55.57
43838;BME280;65998;46.256;7.534;2023-05-27T09:56:13;87236.16;;;18.14;55.50
43838;BME280;65998;46.256;7.534;2023-05-27T09:58:40;87234.78;;;18.13;55.83
43838;BME280;65998;46.256;7.534;2023-05-27T10:01:06;87232.69;;;18.13;55.67
43838;BME280;65998;46.256;7.534;2023-05-27T10:03:32;87233.38;;;18.14;55.54
43838;BME280;65998;46.256;7.534;2023-05-27T10:05:59;87234.06;;;18.14;55.63
43838;BME280;65998;46.256;7.534;2023-05-27T10:08:26;87234.78;;;18.13;55.67
43838;BME280;65998;46.256;7.534;2023-05-27T10:10:52;87227.13;;;18.13;55.70
43838;BME280;65998;46.256;7.534;2023-05-27T10:13:19;87227.81;;;18.14;55.55
43838;BME280;65998;46.256;7.534;2023-05-27T10:15:47;87235.47;;;18.13;55.64
43838;BME280;65998;46.256;7.534;2023-05-27T10:18:24;87225.72;;;18.14;55.73
43838;BME280;65998;46.256;7.534;2023-05-27T10:20:50;87227.81;;;18.14;55.73
43838;BME280;65998;46.256;7.534;2023-05-27T10:23:27;87219.47;;;18.14;55.80
43838;BME280;65998;46.256;7.534;2023-05-27T10:25:56;87221.56;;;18.13;55.79
43838;BME280;65998;46.256;7.534;2023-05-27T10:28:40;87218.78;;;18.13;55.84
43838;BME280;65998;46.256;7.534;2023-05-27T10:31:17;87221.56;;;18.13;55.86
43838;BME280;65998;46.256;7.534;2023-05-27T10:33:52;87211.13;;;18.14;55.76
43838;BME280;65998;46.256;7.534;2023-05-27T10:36:27;87218.78;;;18.13;55.76
43838;BME280;65998;46.256;7.534;2023-05-27T10:38:58;87209.69;;;18.15;55.82
43838;BME280;65998;46.256;7.534;2023-05-27T10:41:25;87213.22;;;18.13;55.90
43838;BME280;65998;46.256;7.534;2023-05-27T10:43:58;87212.47;;;18.15;55.89
43838;BME280;65998;46.256;7.534;2023-05-27T10:46:24;87205.56;;;18.14;55.94
43838;BME280;65998;46.256;7.534;2023-05-27T10:48:51;87202.78;;;18.14;56.00
43838;BME280;65998;46.256;7.534;2023-05-27T10:51:17;87214.59;;;18.14;56.07
43838;BME280;65998;46.256;7.534;2023-05-27T10:53:43;87209.03;;;18.14;55.94
43838;BME280;65998;46.256;7.534;2023-05-27T10:56:09;87208.28;;;18.16;56.03
43838;BME280;65998;46.256;7.534;2023-05-27T10:58:37;87206.91;;;18.15;56.10
43838;BME280;65998;46.256;7.534;2023-05-27T11:01:11;87197.84;;;18.16;56.14
43838;BME280;65998;46.256;7.534;2023-05-27T11:03:46;87198.50;;;18.17;56.10
43838;BME280;65998;46.256;7.534;2023-05-27T11:06:12;87199.25;;;18.15;56.21
43838;BME280;65998;46.256;7.534;2023-05-27T11:08:39;87195.06;;;18.16;56.13
43838;BME280;65998;46.256;7.534;2023-05-27T11:11:09;87193.63;;;18.17;56.22
43838;BME280;65998;46.256;7.534;2023-05-27T11:13:40;87197.84;;;18.16;56.20
43838;BME280;65998;46.256;7.534;2023-05-27T11:16:06;87194.38;;;18.16;56.25
43838;BME280;65998;46.256;7.534;2023-05-27T11:21:05;87193.69;;;18.15;56.35
43838;BME280;65998;46.256;7.534;2023-05-27T11:23:49;87191.59;;;18.16;56.25
43838;BME280;65998;46.256;7.534;2023-05-27T11:26:19;87188.81;;;18.16;56.31
43838;BME280;65998;46.256;7.534;2023-05-27T11:28:53;87186.72;;;18.16;56.29
43838;BME280;65998;46.256;7.534;2023-05-27T11:31:21;87189.50;;;18.16;56.46
43838;BME280;65998;46.256;7.534;2023-05-27T11:33:50;87184.59;;;18.17;56.38
43838;BME280;65998;46.256;7.534;2023-05-27T11:36:17;87183.25;;;18.16;56.38
43838;BME280;65998;46.256;7.534;2023-05-27T11:41:12;87175.59;;;18.16;56.48
43838;BME280;65998;46.256;7.534;2023-05-27T11:43:54;87181.81;;;18.17;56.40
43838;BME280;65998;46.256;7.534;2023-05-27T11:46:20;87181.81;;;18.17;56.47
43838;BME280;65998;46.256;7.534;2023-05-27T11:48:46;87179.03;;;18.17;56.60
43838;BME280;65998;46.256;7.534;2023-05-27T11:51:12;87173.47;;;18.17;56.41
43838;BME280;65998;46.256;7.534;2023-05-27T11:53:45;87171.38;;;18.17;56.66
43838;BME280;65998;46.256;7.534;2023-05-27T11:56:11;87170.03;;;18.16;56.53
43838;BME280;65998;46.256;7.534;2023-05-27T11:58:37;87167.91;;;18.17;56.63
43838;BME280;65998;46.256;7.534;2023-05-27T12:01:04;87171.38;;;18.17;56.62
43838;BME280;65998;46.256;7.534;2023-05-27T12:03:32;87166.50;;;18.18;56.65
43838;BME280;65998;46.256;7.534;2023-05-27T12:05:58;87161.59;;;18.18;56.69
43838;BME280;65998;46.256;7.534;2023-05-27T12:08:24;87163.72;;;18.18;56.68
43838;BME280;65998;46.256;7.534;2023-05-27T12:10:50;87156.03;;;18.18;56.68
43838;BME280;65998;46.256;7.534;2023-05-27T12:13:16;87156.72;;;18.19;56.74
43838;BME280;65998;46.256;7.534;2023-05-27T12:15:42;87162.28;;;18.19;56.75
43838;BME280;65998;46.256;7.534;2023-05-27T12:18:09;87151.84;;;18.19;56.51
43838;BME280;65998;46.256;7.534;2023-05-27T12:20:34;87153.94;;;18.19;56.74
43838;BME280;65998;46.256;7.534;2023-05-27T12:23:00;87154.63;;;18.19;56.86
43838;BME280;65998;46.256;7.534;2023-05-27T12:25:26;87157.41;;;18.19;56.85
43838;BME280;65998;46.256;7.534;2023-05-27T12:27:52;87150.41;;;18.21;56.91
43838;BME280;65998;46.256;7.534;2023-05-27T12:30:18;87151.09;;;18.21;56.91
43838;BME280;65998;46.256;7.534;2023-05-27T12:32:44;87139.97;;;18.21;57.00
43838;BME280;65998;46.256;7.534;2023-05-27T12:35:09;87132.28;;;18.22;56.98
43838;BME280;65998;46.256;7.534;2023-05-27T12:37:35;87139.97;;;18.21;57.04
43838;BME280;65998;46.256;7.534;2023-05-27T12:40:01;87142.00;;;18.23;56.94
43838;BME280;65998;46.256;7.534;2023-05-27T12:42:27;87140.63;;;18.22;56.98
43838;BME280;65998;46.256;7.534;2023-05-27T12:44:52;87139.91;;;18.23;57.03
43838;BME280;65998;46.256;7.534;2023-05-27T12:47:18;87131.53;;;18.23;57.05
43838;BME280;65998;46.256;7.534;2023-05-27T12:49:44;87130.13;;;18.24;57.05
43838;BME280;65998;46.256;7.534;2023-05-27T12:52:10;87132.16;;;18.26;57.04
43838;BME280;65998;46.256;7.534;2023-05-27T12:54:36;87134.19;;;18.27;57.09
43838;BME280;65998;46.256;7.534;2023-05-27T12:57:02;87134.88;;;18.28;57.08
43838;BME280;65998;46.256;7.534;2023-05-27T12:59:27;87125.84;;;18.27;57.07
43838;BME280;65998;46.256;7.534;2023-05-27T13:01:53;87127.19;;;18.28;57.11
43838;BME280;65998;46.256;7.534;2023-05-27T13:04:19;87120.97;;;18.28;57.14